createdAt,value
2018-07-26T00:01:12.745Z,21.80
2018-07-26T00:03:42.202Z,21.70
2018-07-26T00:06:11.340Z,21.80
2018-07-26T00:08:40.496Z,21.70
2018-07-26T00:11:09.566Z,21.70
2018-07-26T00:13:38.631Z,21.80
2018-07-26T00:16:07.669Z,21.70
2018-07-26T00:18:36.818Z,21.70
2018-07-26T00:21:05.930Z,21.70
2018-07-26T00:23:34.994Z,21.80
2018-07-26T00:28:32.946Z,21.80
2018-07-26T00:31:02.084Z,21.70
2018-07-26T00:33:31.136Z,21.80
2018-07-26T00:36:00.170Z,21.70
2018-07-26T00:38:30.232Z,21.70
2018-07-26T00:40:59.317Z,21.70
2018-07-26T00:43:28.400Z,21.70
2018-07-26T00:45:57.440Z,21.60
2018-07-26T00:50:55.715Z,21.60
2018-07-26T00:53:24.841Z,21.60
2018-07-26T00:58:23.258Z,21.60
2018-07-26T01:00:52.460Z,21.50
2018-07-26T01:03:21.622Z,21.50
2018-07-26T01:05:50.713Z,21.50
2018-07-26T01:08:20.163Z,21.50
2018-07-26T01:10:49.398Z,21.40
2018-07-26T01:13:18.457Z,21.40
2018-07-26T01:15:47.544Z,21.40
2018-07-26T01:18:16.588Z,21.40
2018-07-26T01:20:45.661Z,21.40
2018-07-26T01:23:14.917Z,21.40
2018-07-26T01:25:44.016Z,21.30
2018-07-26T01:28:13.110Z,21.30
2018-07-26T01:30:42.252Z,21.30
2018-07-26T01:33:11.306Z,21.20
2018-07-26T01:35:40.372Z,21.20
2018-07-26T01:38:09.454Z,21.20
2018-07-26T01:40:38.729Z,21.20
2018-07-26T01:43:31.420Z,21.20
2018-07-26T01:46:00.752Z,21.00
2018-07-26T01:48:29.914Z,21.00
2018-07-26T01:50:59.411Z,21.00
2018-07-26T01:53:28.501Z,21.00
2018-07-26T01:55:57.581Z,21.00
2018-07-26T01:58:26.652Z,21.10
2018-07-26T02:00:55.748Z,21.10
2018-07-26T02:03:24.786Z,21.10
2018-07-26T02:05:53.827Z,21.00
2018-07-26T02:08:24.437Z,21.00
2018-07-26T02:10:53.583Z,21.00
2018-07-26T02:13:22.666Z,21.00
2018-07-26T02:15:52.144Z,21.00
2018-07-26T02:18:21.221Z,21.00
2018-07-26T02:20:50.563Z,20.90
2018-07-26T02:23:19.648Z,20.90
2018-07-26T02:25:48.905Z,20.90
2018-07-26T02:28:18.061Z,20.80
2018-07-26T02:30:47.188Z,20.80
2018-07-26T02:33:16.505Z,20.80
2018-07-26T02:35:45.608Z,20.80
2018-07-26T02:38:14.710Z,20.80
2018-07-26T02:40:43.785Z,20.80
2018-07-26T02:43:12.890Z,20.80
2018-07-26T02:45:42.128Z,20.80
2018-07-26T02:48:11.374Z,20.80
2018-07-26T02:50:40.680Z,20.70
2018-07-26T02:53:09.813Z,20.70
2018-07-26T02:55:39.100Z,20.70
2018-07-26T02:58:08.190Z,20.70
2018-07-26T03:00:37.237Z,20.70
2018-07-26T03:03:06.695Z,20.80
2018-07-26T03:05:35.772Z,20.80
2018-07-26T03:08:04.842Z,20.80
2018-07-26T03:10:33.886Z,20.70
2018-07-26T03:13:03.040Z,20.80
2018-07-26T03:15:32.124Z,20.80
2018-07-26T03:18:01.212Z,20.80
2018-07-26T03:20:30.276Z,20.70
2018-07-26T03:22:59.388Z,20.70
2018-07-26T03:25:28.629Z,20.70
2018-07-26T03:27:57.696Z,20.60
2018-07-26T03:30:26.792Z,20.70
2018-07-26T03:32:55.849Z,20.70
2018-07-26T03:35:24.912Z,20.70
2018-07-26T03:37:54.018Z,20.60
2018-07-26T03:40:23.095Z,20.70
2018-07-26T03:42:52.175Z,20.70
2018-07-26T03:45:21.272Z,20.60
2018-07-26T03:47:50.386Z,20.60
2018-07-26T03:50:19.581Z,20.60
2018-07-26T03:52:48.770Z,20.60
2018-07-26T03:55:17.864Z,20.60
2018-07-26T03:57:46.960Z,20.60
2018-07-26T04:00:16.059Z,20.60
2018-07-26T04:02:45.151Z,20.70
2018-07-26T04:05:14.314Z,20.70
2018-07-26T04:07:43.857Z,20.80
2018-07-26T04:10:12.943Z,20.80
2018-07-26T04:12:42.017Z,20.80
2018-07-26T04:15:11.099Z,20.80
2018-07-26T04:17:40.194Z,20.80
2018-07-26T04:20:09.429Z,20.80
2018-07-26T04:22:38.425Z,21.00
2018-07-26T04:25:07.494Z,21.00
2018-07-26T04:27:36.579Z,21.00
2018-07-26T04:30:05.956Z,21.10
2018-07-26T04:32:35.036Z,21.10
2018-07-26T04:35:04.104Z,21.10
2018-07-26T04:37:33.305Z,21.20
2018-07-26T04:40:02.399Z,21.20
2018-07-26T04:42:31.587Z,21.30
2018-07-26T04:45:00.854Z,21.40
2018-07-26T04:47:30.020Z,21.40
2018-07-26T04:49:59.394Z,21.40
2018-07-26T04:52:28.683Z,21.50
2018-07-26T04:54:57.861Z,21.60
2018-07-26T04:57:27.122Z,21.70
2018-07-26T04:59:56.252Z,21.70
2018-07-26T05:02:25.367Z,21.70
2018-07-26T05:04:54.456Z,21.80
2018-07-26T05:07:23.550Z,21.80
2018-07-26T05:09:52.621Z,21.90
2018-07-26T05:12:21.652Z,21.90
2018-07-26T05:14:50.773Z,22.00
2018-07-26T05:17:19.932Z,22.10
2018-07-26T05:19:48.963Z,22.20
2018-07-26T05:22:18.046Z,22.20
2018-07-26T05:24:47.197Z,22.30
2018-07-26T05:27:16.265Z,22.40
2018-07-26T05:29:45.437Z,22.50
2018-07-26T05:32:14.542Z,22.60
2018-07-26T05:34:43.657Z,22.60
2018-07-26T05:37:12.747Z,22.70
2018-07-26T05:39:41.895Z,22.80
2018-07-26T05:42:11.233Z,23.00
2018-07-26T05:47:10.485Z,23.50
2018-07-26T05:49:39.723Z,23.90
2018-07-26T05:52:09.416Z,24.20
2018-07-26T05:54:39.496Z,24.40
2018-07-26T05:57:10.233Z,24.50
2018-07-26T05:59:40.050Z,24.60
2018-07-26T06:02:09.759Z,24.90
2018-07-26T06:04:40.522Z,25.10
2018-07-26T06:07:10.895Z,25.50
2018-07-26T06:09:40.439Z,25.80
2018-07-26T06:12:09.597Z,25.90
2018-07-26T06:14:38.676Z,26.00
2018-07-26T06:17:07.875Z,26.00
2018-07-26T06:22:06.254Z,26.30
2018-07-26T06:24:35.420Z,26.10
2018-07-26T06:27:04.548Z,25.90
2018-07-26T06:29:33.612Z,25.80
2018-07-26T06:32:02.737Z,25.80
2018-07-26T06:34:31.857Z,25.90
2018-07-26T06:37:01.039Z,25.80
2018-07-26T06:39:30.234Z,25.80
2018-07-26T06:41:59.498Z,25.60
2018-07-26T06:44:28.566Z,25.70
2018-07-26T06:46:57.663Z,25.70
2018-07-26T06:49:26.745Z,25.70
2018-07-26T06:54:24.769Z,25.70
2018-07-26T06:56:53.995Z,25.70
2018-07-26T06:59:23.535Z,25.80
2018-07-26T07:01:52.775Z,25.80
2018-07-26T07:04:22.139Z,25.90
2018-07-26T07:06:51.540Z,25.90
2018-07-26T07:09:20.881Z,26.00
2018-07-26T07:11:51.611Z,26.00
2018-07-26T07:14:20.873Z,26.10
2018-07-26T07:16:50.068Z,26.10
2018-07-26T07:19:19.130Z,26.20
2018-07-26T07:21:48.222Z,26.30
2018-07-26T07:24:22.301Z,26.30
2018-07-26T07:26:53.627Z,26.40
2018-07-26T07:29:23.368Z,26.50
2018-07-26T07:31:52.763Z,26.60
2018-07-26T07:34:21.836Z,26.70
2018-07-26T07:36:50.964Z,26.70
2018-07-26T07:39:20.070Z,26.80
2018-07-26T07:41:49.139Z,26.90
2018-07-26T07:44:18.187Z,26.90
2018-07-26T07:46:47.324Z,27.10
2018-07-26T07:49:16.413Z,27.10
2018-07-26T07:51:45.611Z,27.30
2018-07-26T07:54:15.298Z,27.30
2018-07-26T07:56:44.474Z,27.40
2018-07-26T07:59:13.557Z,27.50
2018-07-26T08:01:43.037Z,27.60
2018-07-26T08:04:12.170Z,27.70
2018-07-26T08:06:41.511Z,27.80
2018-07-26T08:09:12.133Z,27.80
2018-07-26T08:11:41.396Z,28.00
2018-07-26T08:14:10.882Z,28.00
2018-07-26T08:16:40.585Z,28.00
2018-07-26T08:19:10.198Z,28.10
2018-07-26T08:21:39.377Z,28.20
2018-07-26T08:24:09.371Z,28.30
2018-07-26T08:26:38.502Z,28.30
2018-07-26T08:29:09.425Z,28.40
2018-07-26T08:31:39.194Z,28.50
2018-07-26T08:34:09.388Z,28.60
2018-07-26T08:36:40.001Z,28.70
2018-07-26T08:39:12.453Z,28.70
2018-07-26T08:41:42.890Z,28.80
2018-07-26T08:44:13.704Z,28.90
2018-07-26T08:46:42.823Z,29.00
2018-07-26T08:49:13.641Z,29.00
2018-07-26T08:51:44.505Z,29.00
2018-07-26T08:54:14.273Z,29.10
2018-07-26T08:59:13.141Z,29.20
2018-07-26T09:01:42.671Z,29.30
2018-07-26T09:06:41.790Z,29.50
2018-07-26T09:09:13.232Z,29.60
2018-07-26T09:11:43.460Z,29.70
2018-07-26T09:14:13.944Z,29.70
2018-07-26T09:16:45.223Z,29.80
2018-07-26T09:19:15.138Z,29.90
2018-07-26T09:21:45.255Z,30.00
2018-07-26T09:24:14.916Z,30.10
2018-07-26T09:26:44.877Z,30.20
2018-07-26T09:29:16.463Z,30.20
2018-07-26T09:31:46.460Z,30.30
2018-07-26T09:34:16.588Z,30.30
2018-07-26T09:36:46.931Z,30.30
2018-07-26T09:39:16.965Z,30.30
2018-07-26T09:41:47.001Z,30.50
2018-07-26T09:44:16.262Z,30.50
2018-07-26T09:46:45.833Z,30.60
2018-07-26T09:49:15.065Z,30.50
2018-07-26T09:51:44.883Z,30.60
2018-07-26T09:54:14.075Z,30.70
2018-07-26T09:56:43.402Z,30.80
2018-07-26T09:59:12.502Z,30.80
2018-07-26T10:01:41.952Z,30.80
2018-07-26T10:04:11.753Z,30.90
2018-07-26T10:06:40.906Z,31.00
2018-07-26T10:09:11.690Z,31.00
2018-07-26T10:11:40.804Z,31.00
2018-07-26T10:14:10.023Z,31.10
2018-07-26T10:16:39.194Z,31.10
2018-07-26T10:19:08.331Z,31.10
2018-07-26T10:21:37.745Z,31.20
2018-07-26T10:24:07.083Z,31.20
2018-07-26T10:26:36.205Z,31.30
2018-07-26T10:29:05.536Z,31.40
2018-07-26T10:34:03.899Z,31.30
2018-07-26T10:36:33.188Z,31.20
2018-07-26T10:39:02.628Z,31.40
2018-07-26T10:41:32.071Z,31.50
2018-07-26T10:44:01.377Z,31.50
2018-07-26T10:46:32.425Z,31.50
2018-07-26T10:49:01.654Z,31.50
2018-07-26T10:51:31.315Z,31.60
2018-07-26T10:54:04.210Z,31.70
2018-07-26T10:56:33.807Z,31.80
2018-07-26T10:59:03.382Z,31.80
2018-07-26T11:01:32.828Z,31.90
2018-07-26T11:04:02.170Z,31.90
2018-07-26T11:09:02.777Z,31.90
2018-07-26T11:11:32.183Z,31.90
2018-07-26T11:14:01.997Z,31.80
2018-07-26T11:16:31.760Z,31.90
2018-07-26T11:19:01.105Z,32.00
2018-07-26T11:21:30.332Z,32.10
2018-07-26T11:24:01.440Z,32.10
2018-07-26T11:26:30.789Z,32.20
2018-07-26T11:29:00.175Z,32.20
2018-07-26T11:31:35.806Z,32.40
2018-07-26T11:34:05.339Z,32.60
2018-07-26T11:36:34.920Z,32.60
2018-07-26T11:39:06.554Z,32.80
2018-07-26T11:41:36.097Z,32.90
2018-07-26T11:44:05.462Z,32.90
2018-07-26T11:46:35.145Z,33.10
2018-07-26T11:49:04.761Z,33.00
2018-07-26T11:51:34.031Z,33.00
2018-07-26T11:54:04.378Z,33.10
2018-07-26T11:56:33.679Z,33.20
2018-07-26T11:59:02.903Z,33.20
2018-07-26T12:01:32.020Z,33.40
2018-07-26T12:04:01.137Z,33.50
2018-07-26T12:06:30.330Z,33.70
2018-07-26T12:08:59.628Z,33.70
2018-07-26T12:11:28.962Z,33.70
2018-07-26T12:13:58.125Z,33.60
2018-07-26T12:16:27.280Z,33.60
2018-07-26T12:18:56.360Z,33.50
2018-07-26T12:21:25.480Z,33.40
2018-07-26T12:23:54.741Z,33.30
2018-07-26T12:26:24.071Z,33.20
2018-07-26T12:28:53.353Z,33.00
2018-07-26T12:31:22.964Z,32.90
2018-07-26T12:33:52.254Z,32.80
2018-07-26T12:36:21.770Z,32.80
2018-07-26T12:38:51.065Z,32.80
2018-07-26T12:41:20.502Z,33.00
2018-07-26T12:43:49.962Z,33.30
2018-07-26T12:46:19.574Z,33.40
2018-07-26T12:48:49.398Z,33.50
2018-07-26T12:51:18.773Z,33.20
2018-07-26T12:53:48.398Z,32.80
2018-07-26T12:56:17.860Z,32.70
2018-07-26T12:58:47.534Z,32.60
2018-07-26T13:01:16.918Z,32.50
2018-07-26T13:03:46.542Z,32.50
2018-07-26T13:06:15.780Z,32.70
2018-07-26T13:08:44.923Z,32.90
2018-07-26T13:11:14.059Z,32.90
2018-07-26T13:13:43.237Z,32.70
2018-07-26T13:16:12.440Z,32.60
2018-07-26T13:18:41.677Z,32.50
2018-07-26T13:21:11.097Z,32.40
2018-07-26T13:23:40.234Z,32.40
2018-07-26T13:26:10.119Z,32.40
2018-07-26T13:28:39.417Z,32.30
2018-07-26T13:31:08.556Z,32.30
2018-07-26T13:33:37.775Z,32.50
2018-07-26T13:36:07.014Z,32.70
2018-07-26T13:38:36.362Z,32.90
2018-07-26T13:41:05.678Z,33.00
2018-07-26T13:43:34.885Z,32.90
2018-07-26T13:46:04.093Z,32.80
2018-07-26T13:48:33.487Z,32.70
2018-07-26T13:51:02.625Z,32.80
2018-07-26T13:53:32.248Z,33.00
2018-07-26T13:56:01.541Z,33.10
2018-07-26T14:01:00.836Z,33.30
2018-07-26T14:03:30.382Z,33.50
2018-07-26T14:05:59.890Z,33.70
2018-07-26T14:08:29.150Z,33.90
2018-07-26T14:10:58.523Z,34.00
2018-07-26T14:13:28.050Z,34.00
2018-07-26T14:15:57.403Z,34.10
2018-07-26T14:18:28.095Z,34.20
2018-07-26T14:20:57.812Z,34.20
2018-07-26T14:23:32.258Z,34.20
2018-07-26T14:26:01.764Z,34.20
2018-07-26T14:28:31.593Z,34.20
2018-07-26T14:31:01.112Z,34.30
2018-07-26T14:33:30.716Z,34.40
2018-07-26T14:35:59.916Z,34.30
2018-07-26T14:38:29.085Z,34.30
2018-07-26T14:40:58.326Z,34.20
2018-07-26T14:43:27.593Z,34.00
2018-07-26T14:45:56.868Z,33.70
2018-07-26T14:48:26.162Z,33.60
2018-07-26T14:50:55.421Z,33.50
2018-07-26T14:53:24.803Z,33.30
2018-07-26T14:55:54.003Z,33.00
2018-07-26T14:58:23.474Z,32.80
2018-07-26T15:00:53.177Z,32.80
2018-07-26T15:03:22.654Z,32.90
2018-07-26T15:05:51.829Z,33.10
2018-07-26T15:08:20.998Z,33.40
2018-07-26T15:10:50.202Z,33.50
2018-07-26T15:13:19.431Z,33.70
2018-07-26T15:15:48.757Z,33.70
2018-07-26T15:18:17.902Z,33.70
2018-07-26T15:20:47.041Z,33.30
2018-07-26T15:23:17.503Z,33.10
2018-07-26T15:25:46.592Z,32.90
2018-07-26T15:28:15.916Z,32.90
2018-07-26T15:30:45.122Z,32.90
2018-07-26T15:33:14.363Z,33.00
2018-07-26T15:35:43.786Z,33.00
2018-07-26T15:38:13.577Z,33.00
2018-07-26T15:40:44.291Z,33.00
2018-07-26T15:43:13.625Z,33.10
2018-07-26T15:45:43.298Z,33.00
2018-07-26T15:48:13.432Z,33.10
2018-07-26T15:50:43.092Z,33.10
2018-07-26T15:53:12.279Z,33.10
2018-07-26T15:55:41.576Z,32.90
2018-07-26T15:58:10.831Z,32.90
2018-07-26T16:00:40.803Z,32.90
2018-07-26T16:03:10.221Z,32.90
2018-07-26T16:05:39.353Z,33.00
2018-07-26T16:08:08.669Z,32.90
2018-07-26T16:10:37.773Z,32.80
2018-07-26T16:13:07.491Z,32.70
2018-07-26T16:15:37.003Z,32.50
2018-07-26T16:18:06.452Z,32.50
2018-07-26T16:20:35.929Z,32.50
2018-07-26T16:23:05.382Z,32.40
2018-07-26T16:25:34.677Z,32.40
2018-07-26T16:28:03.789Z,32.40
2018-07-26T16:30:32.925Z,32.20
2018-07-26T16:33:02.258Z,32.10
2018-07-26T16:35:31.465Z,32.00
2018-07-26T16:38:00.617Z,32.20
2018-07-26T16:40:29.901Z,32.20
2018-07-26T16:42:59.442Z,32.10
2018-07-26T16:45:28.756Z,32.20
2018-07-26T16:47:58.074Z,32.20
2018-07-26T16:50:27.476Z,32.20
2018-07-26T16:53:01.348Z,32.10
2018-07-26T16:55:30.678Z,31.90
2018-07-26T16:58:00.018Z,31.80
2018-07-26T17:00:29.476Z,31.70
2018-07-26T17:02:58.992Z,31.70
2018-07-26T17:05:28.303Z,31.70
2018-07-26T17:07:57.757Z,31.70
2018-07-26T17:10:27.281Z,31.70
2018-07-26T17:12:56.728Z,31.60
2018-07-26T17:15:26.020Z,31.60
2018-07-26T17:17:55.248Z,31.50
2018-07-26T17:20:24.537Z,31.60
2018-07-26T17:22:53.886Z,31.50
2018-07-26T17:25:25.714Z,31.30
2018-07-26T17:27:56.228Z,31.20
2018-07-26T17:30:25.845Z,31.20
2018-07-26T17:32:55.137Z,31.10
2018-07-26T17:35:24.344Z,31.00
2018-07-26T17:37:53.682Z,30.90
2018-07-26T17:40:22.849Z,30.90
2018-07-26T17:45:21.055Z,30.80
2018-07-26T17:47:50.351Z,30.80
2018-07-26T17:50:19.812Z,30.80
2018-07-26T17:52:49.136Z,30.70
2018-07-26T17:55:18.315Z,30.80
2018-07-26T17:57:47.571Z,30.70
2018-07-26T18:00:18.602Z,30.60
2018-07-26T18:02:47.810Z,30.60
2018-07-26T18:05:18.052Z,30.70
2018-07-26T18:07:47.257Z,30.60
2018-07-26T18:10:16.609Z,30.60
2018-07-26T18:12:46.194Z,30.60
2018-07-26T18:15:16.013Z,30.60
2018-07-26T18:20:14.607Z,30.50
2018-07-26T18:22:44.737Z,30.40
2018-07-26T18:27:43.322Z,30.40
2018-07-26T18:30:12.778Z,30.30
2018-07-26T18:32:42.170Z,30.10
2018-07-26T18:35:12.205Z,29.90
2018-07-26T18:37:42.049Z,29.80
2018-07-26T18:40:11.782Z,29.60
2018-07-26T18:42:42.031Z,29.50
2018-07-26T18:45:13.504Z,29.50
2018-07-26T18:47:43.089Z,29.40
2018-07-26T18:50:13.111Z,29.40
2018-07-26T18:52:43.263Z,29.30
2018-07-26T18:55:12.644Z,29.20
2018-07-26T18:57:41.929Z,29.10
2018-07-26T19:00:13.452Z,29.10
2018-07-26T19:02:43.338Z,29.00
2018-07-26T19:05:12.712Z,28.90
2018-07-26T19:07:42.082Z,28.80
2018-07-26T19:10:12.449Z,28.80
2018-07-26T19:12:41.833Z,28.70
2018-07-26T19:15:12.600Z,28.70
2018-07-26T19:17:41.848Z,28.60
2018-07-26T19:20:12.012Z,28.60
2018-07-26T19:22:41.349Z,28.50
2018-07-26T19:25:11.634Z,28.50
2018-07-26T19:27:40.919Z,28.40
2018-07-26T19:30:12.780Z,28.30
2018-07-26T19:32:42.514Z,28.20
2018-07-26T19:35:12.125Z,28.20
2018-07-26T19:37:41.415Z,28.20
2018-07-26T19:40:12.612Z,28.10
2018-07-26T19:42:42.318Z,28.00
2018-07-26T19:45:11.929Z,28.00
2018-07-26T19:47:43.066Z,27.90
2018-07-26T19:50:12.898Z,27.90
2018-07-26T19:52:42.059Z,27.80
2018-07-26T19:55:13.041Z,27.80
2018-07-26T19:57:42.315Z,27.70
2018-07-26T20:00:12.636Z,27.70
2018-07-26T20:02:42.120Z,27.60
2018-07-26T20:05:11.241Z,27.60
2018-07-26T20:07:41.102Z,27.50
2018-07-26T20:12:41.738Z,27.40
2018-07-26T20:15:11.712Z,27.40
2018-07-26T20:17:40.936Z,27.30
2018-07-26T20:20:11.772Z,27.30
2018-07-26T20:22:41.139Z,27.20
2018-07-26T20:25:10.847Z,27.20
2018-07-26T20:27:40.264Z,27.10
2018-07-26T20:30:10.861Z,27.10
2018-07-26T20:32:40.392Z,27.00
2018-07-26T20:35:10.557Z,27.00
2018-07-26T20:37:39.781Z,27.00
2018-07-26T20:40:10.873Z,26.90
2018-07-26T20:42:40.403Z,26.90
2018-07-26T20:45:11.592Z,26.90
2018-07-26T20:47:42.050Z,26.80
2018-07-26T20:50:11.378Z,26.80
2018-07-26T20:52:40.632Z,26.70
2018-07-26T20:55:09.997Z,26.70
2018-07-26T20:57:39.439Z,26.60
2018-07-26T21:00:12.353Z,26.60
2018-07-26T21:02:42.047Z,26.50
2018-07-26T21:05:11.760Z,26.50
2018-07-26T21:07:41.268Z,26.40
2018-07-26T21:10:11.097Z,26.40
2018-07-26T21:12:40.638Z,26.40
2018-07-26T21:15:10.411Z,26.30
2018-07-26T21:17:39.856Z,26.20
2018-07-26T21:20:09.758Z,26.20
2018-07-26T21:22:39.173Z,26.20
2018-07-26T21:25:08.547Z,26.10
2018-07-26T21:30:07.660Z,26.10
2018-07-26T21:32:37.392Z,26.00
2018-07-26T21:35:08.033Z,26.00
2018-07-26T21:37:37.393Z,25.90
2018-07-26T21:40:07.447Z,25.90
2018-07-26T21:42:36.787Z,25.80
2018-07-26T21:45:06.561Z,25.80
2018-07-26T21:47:35.670Z,25.70
2018-07-26T21:50:04.926Z,25.70
2018-07-26T21:52:34.026Z,25.70
2018-07-26T21:55:03.222Z,25.70
2018-07-26T21:57:32.430Z,25.60
2018-07-26T22:00:01.494Z,25.60
2018-07-26T22:02:30.798Z,25.50
2018-07-26T22:04:59.876Z,25.50
2018-07-26T22:07:29.062Z,25.50
2018-07-26T22:09:58.120Z,25.40
2018-07-26T22:12:27.319Z,25.40
2018-07-26T22:14:56.519Z,25.30
2018-07-26T22:17:25.619Z,25.20
2018-07-26T22:19:54.752Z,25.20
2018-07-26T22:22:23.826Z,25.10
2018-07-26T22:24:52.858Z,25.10
2018-07-26T22:27:21.933Z,25.10
2018-07-26T22:29:52.223Z,25.10
2018-07-26T22:32:21.318Z,25.10
2018-07-26T22:34:50.511Z,25.00
2018-07-26T22:37:19.885Z,25.00
2018-07-26T22:39:49.106Z,24.90
2018-07-26T22:42:18.227Z,24.90
2018-07-26T22:44:47.439Z,24.90
2018-07-26T22:47:16.580Z,24.80
2018-07-26T22:49:45.697Z,24.70
2018-07-26T22:52:14.794Z,24.70
2018-07-26T22:54:43.835Z,24.70
2018-07-26T22:57:12.907Z,24.60
2018-07-26T22:59:42.020Z,24.60
2018-07-26T23:02:11.335Z,24.60
2018-07-26T23:04:40.443Z,24.50
2018-07-26T23:07:09.542Z,24.50
2018-07-26T23:09:38.636Z,24.40
2018-07-26T23:12:07.732Z,24.40
2018-07-26T23:14:36.969Z,24.40
2018-07-26T23:17:05.997Z,24.30
2018-07-26T23:19:35.093Z,24.30
2018-07-26T23:22:04.189Z,24.20
2018-07-26T23:24:33.287Z,24.20
2018-07-26T23:27:02.338Z,24.20
2018-07-26T23:29:31.445Z,24.10
2018-07-26T23:32:00.511Z,24.10
2018-07-26T23:34:29.677Z,24.00
2018-07-26T23:36:58.780Z,23.90
2018-07-26T23:39:27.948Z,23.90
2018-07-26T23:41:57.275Z,23.80
2018-07-26T23:44:26.419Z,23.80
2018-07-26T23:46:55.454Z,23.80
2018-07-26T23:49:24.528Z,23.70
2018-07-26T23:51:53.574Z,23.70
2018-07-26T23:54:22.668Z,23.70
2018-07-26T23:56:51.816Z,23.60
2018-07-26T23:59:20.906Z,23.70
